Time;durP1;ratioP1;P1;durP2;ratioP2;P2;SDS_P1;SDS_P2;PMS_P1;PMS_P2;Temp;Humidity;BMP_temperature;BMP_pressure;BME280_temperature;BME280_humidity;BME280_pressure;Samples;Min_cycle;Max_cycle;Signal;HPM_P1;HPM_P2
2023/09/06 00:01:17;;;;;;;5.90;3.30;;;;;;;;;;5075341;28;20467;-65
2023/09/06 00:03:44;;;;;;;5.90;3.40;;;;;;;;;;5070762;28;20031;-66
2023/09/06 00:06:11;;;;;;;3.97;2.80;;;;;;;;;;5070003;28;20467;-65
2023/09/06 00:08:37;;;;;;;3.43;2.63;;;;;;;;;;5069704;28;20036;-64
2023/09/06 00:11:05;;;;;;;4.30;3.23;;;;;;;;;;5070057;28;20028;-65
2023/09/06 00:13:32;;;;;;;4.30;3.23;;;;;;;;;;5073378;28;20031;-65
2023/09/06 00:15:59;;;;;;;7.20;3.67;;;;;;;;;;5074838;28;20052;-65
2023/09/06 00:18:27;;;;;;;4.17;3.00;;;;;;;;;;5075022;28;20024;-65
2023/09/06 00:20:54;;;;;;;6.90;3.80;;;;;;;;;;5074256;28;20123;-66
2023/09/06 00:23:21;;;;;;;3.93;3.07;;;;;;;;;;5073383;28;20135;-65
2023/09/06 00:25:48;;;;;;;3.77;2.83;;;;;;;;;;5050837;28;20060;-65
2023/09/06 00:28:14;;;;;;;3.60;2.70;;;;;;;;;;5049716;28;20024;-65
2023/09/06 00:30:44;;;;;;;3.03;2.27;;;;;;;;;;5049914;28;20036;-65
2023/09/06 00:33:11;;;;;;;5.50;3.23;;;;;;;;;;5031185;28;20029;-65
2023/09/06 00:35:40;;;;;;;11.27;2.50;;;;;;;;;;5052648;28;20025;-66
2023/09/06 00:38:07;;;;;;;4.50;3.00;;;;;;;;;;5054906;28;20434;-65
2023/09/06 00:40:37;;;;;;;3.63;2.83;;;;;;;;;;5054608;28;20029;-65
2023/09/06 00:43:05;;;;;;;4.57;3.20;;;;;;;;;;5054469;28;20032;-66
2023/09/06 00:45:37;;;;;;;4.35;3.10;;;;;;;;;;5054061;28;20013;-65
2023/09/06 00:48:05;;;;;;;29.23;2.90;;;;;;;;;;5049820;28;20251;-65
2023/09/06 00:50:34;;;;;;;4.17;2.27;;;;;;;;;;5049253;28;20108;-65
2023/09/06 00:53:00;;;;;;;2.97;2.20;;;;;;;;;;5049272;28;20021;-65
2023/09/06 00:55:27;;;;;;;4.47;2.77;;;;;;;;;;5049280;28;20048;-65
2023/09/06 00:57:54;;;;;;;7.80;4.17;;;;;;;;;;5052601;28;20029;-65
2023/09/06 01:00:24;;;;;;;4.17;2.63;;;;;;;;;;5035997;28;20079;-65
2023/09/06 01:02:51;;;;;;;5.63;3.33;;;;;;;;;;5053774;28;20025;-65
2023/09/06 01:05:22;;;;;;;3.97;2.77;;;;;;;;;;5054050;28;20017;-65
2023/09/06 01:07:51;;;;;;;3.20;2.37;;;;;;;;;;5053860;28;20083;-65
2023/09/06 01:10:18;;;;;;;5.37;2.87;;;;;;;;;;5049139;28;20027;-66
2023/09/06 01:12:45;;;;;;;5.07;2.97;;;;;;;;;;5048576;28;20037;-65
2023/09/06 01:15:12;;;;;;;3.80;2.80;;;;;;;;;;5030810;28;20021;-65
2023/09/06 01:17:41;;;;;;;10.33;3.87;;;;;;;;;;5030468;28;20119;-66
2023/09/06 01:20:29;;;;;;;6.83;4.37;;;;;;;;;;5052592;28;20021;-65
2023/09/06 01:23:15;;;;;;;7.10;4.43;;;;;;;;;;5053427;28;20025;-65
2023/09/06 01:25:42;;;;;;;5.13;3.50;;;;;;;;;;5043245;28;20033;-65
2023/09/06 01:28:09;;;;;;;11.13;3.40;;;;;;;;;;5053820;28;20017;-65
2023/09/06 01:30:37;;;;;;;2.73;2.13;;;;;;;;;;5053096;28;20017;-65
2023/09/06 01:33:04;;;;;;;7.77;3.67;;;;;;;;;;5048227;28;20029;-65
2023/09/06 01:35:30;;;;;;;4.50;2.93;;;;;;;;;;5048575;28;20033;-65
2023/09/06 01:37:57;;;;;;;4.47;3.53;;;;;;;;;;5048072;28;20048;-65
2023/09/06 01:40:26;;;;;;;4.20;2.97;;;;;;;;;;5048312;28;20013;-65
2023/09/06 01:42:53;;;;;;;5.50;3.47;;;;;;;;;;5053366;28;20100;-64
2023/09/06 01:45:20;;;;;;;3.87;2.83;;;;;;;;;;5053011;28;20177;-65
2023/09/06 01:47:48;;;;;;;5.20;3.97;;;;;;;;;;5053337;28;20029;-65
2023/09/06 01:50:19;;;;;;;5.67;3.50;;;;;;;;;;5053207;28;20104;-65
2023/09/06 01:52:46;;;;;;;4.00;3.07;;;;;;;;;;5052361;28;20044;-66
2023/09/06 01:55:12;;;;;;;5.13;3.73;;;;;;;;;;5048023;28;20047;-65
2023/09/06 01:57:39;;;;;;;7.03;4.10;;;;;;;;;;5047780;28;20361;-65
2023/09/06 02:00:28;;;;;;;4.53;3.77;;;;;;;;;;5048158;28;20380;-65
2023/09/06 02:02:53;;;;;;;4.03;3.20;;;;;;;;;;5047188;28;20124;-65
2023/09/06 02:05:19;;;;;;;5.07;3.90;;;;;;;;;;5052943;28;20056;-65
2023/09/06 02:07:46;;;;;;;4.30;2.80;;;;;;;;;;5052503;28;20120;-65
2023/09/06 02:10:13;;;;;;;4.03;3.07;;;;;;;;;;5052851;28;20079;-65
2023/09/06 02:12:40;;;;;;;6.83;4.37;;;;;;;;;;5052309;28;20337;-65
2023/09/06 02:15:07;;;;;;;7.30;5.00;;;;;;;;;;5051343;28;20162;-65
2023/09/06 02:17:35;;;;;;;4.80;3.50;;;;;;;;;;5047399;28;20503;-66
2023/09/06 02:20:12;;;;;;;4.97;3.43;;;;;;;;;;5047251;28;20021;-65
2023/09/06 02:22:40;;;;;;;5.03;3.70;;;;;;;;;;5047617;28;20512;-64
2023/09/06 02:25:08;;;;;;;4.57;3.10;;;;;;;;;;5048375;28;20376;-65
2023/09/06 02:27:35;;;;;;;5.83;3.77;;;;;;;;;;5052579;28;20479;-65
2023/09/06 02:30:06;;;;;;;5.33;3.80;;;;;;;;;;5052200;28;20476;-65
2023/09/06 02:32:36;;;;;;;10.93;4.90;;;;;;;;;;5052193;28;20028;-65
2023/09/06 02:35:03;;;;;;;4.87;3.53;;;;;;;;;;5052471;28;20075;-65
2023/09/06 02:37:29;;;;;;;12.97;4.03;;;;;;;;;;5033229;28;20056;-65
2023/09/06 02:39:56;;;;;;;6.03;3.27;;;;;;;;;;5047575;28;20033;-64
2023/09/06 02:42:23;;;;;;;5.77;3.97;;;;;;;;;;5047128;28;20031;-65
2023/09/06 02:44:51;;;;;;;10.23;4.47;;;;;;;;;;5046984;28;20028;-65
2023/09/06 02:47:25;;;;;;;6.73;4.40;;;;;;;;;;5048187;28;20032;-65
2023/09/06 02:49:55;;;;;;;6.80;4.30;;;;;;;;;;5052148;28;20032;-65
2023/09/06 02:52:28;;;;;;;5.60;3.60;;;;;;;;;;5052332;28;20017;-65
2023/09/06 02:54:57;;;;;;;5.23;3.50;;;;;;;;;;5052119;28;20024;-65
2023/09/06 02:57:25;;;;;;;4.67;3.00;;;;;;;;;;5050880;28;20037;-65
2023/09/06 02:59:51;;;;;;;10.40;3.60;;;;;;;;;;5032383;28;20040;-65
2023/09/06 03:02:24;;;;;;;3.67;2.67;;;;;;;;;;5029155;28;20025;-65
2023/09/06 03:05:03;;;;;;;6.03;3.37;;;;;;;;;;5047213;28;20036;-66
2023/09/06 03:07:33;;;;;;;5.53;3.47;;;;;;;;;;5046561;28;20041;-65
2023/09/06 03:10:00;;;;;;;6.80;2.40;;;;;;;;;;5049053;28;20052;-64
2023/09/06 03:12:28;;;;;;;4.97;3.27;;;;;;;;;;5052304;28;20021;-65
2023/09/06 03:14:55;;;;;;;4.50;3.33;;;;;;;;;;5052153;28;20463;-65
2023/09/06 03:17:22;;;;;;;4.97;3.50;;;;;;;;;;5051647;28;20476;-65
2023/09/06 03:19:59;;;;;;;4.70;3.33;;;;;;;;;;5052023;28;20025;-65
2023/09/06 03:22:27;;;;;;;4.97;3.50;;;;;;;;;;5049277;28;20021;-65
2023/09/06 03:24:55;;;;;;;5.00;3.47;;;;;;;;;;5051099;28;20375;-65
2023/09/06 03:27:22;;;;;;;3.63;2.63;;;;;;;;;;5050949;28;20033;-65
2023/09/06 03:29:50;;;;;;;3.40;2.67;;;;;;;;;;5050674;28;20029;-65
2023/09/06 03:32:19;;;;;;;5.97;3.83;;;;;;;;;;5052963;28;20514;-65
2023/09/06 03:34:45;;;;;;;4.17;3.13;;;;;;;;;;5055509;28;20079;-65
2023/09/06 03:37:12;;;;;;;6.20;4.00;;;;;;;;;;5055997;28;20029;-65
2023/09/06 03:39:42;;;;;;;5.10;3.63;;;;;;;;;;5037226;28;20464;-65
2023/09/06 03:42:09;;;;;;;9.40;5.33;;;;;;;;;;5037812;28;20086;-65
2023/09/06 03:44:39;;;;;;;4.60;3.57;;;;;;;;;;5052909;28;20025;-65
2023/09/06 03:47:14;;;;;;;6.13;4.13;;;;;;;;;;5050537;28;20403;-65
2023/09/06 03:49:43;;;;;;;5.57;3.57;;;;;;;;;;5050441;28;20021;-65
2023/09/06 03:52:16;;;;;;;6.83;3.30;;;;;;;;;;5050089;28;20029;-66
2023/09/06 03:54:43;;;;;;;6.03;4.17;;;;;;;;;;5052986;28;20075;-65
2023/09/06 03:57:12;;;;;;;5.77;3.97;;;;;;;;;;5037200;28;20495;-65
2023/09/06 03:59:40;;;;;;;6.77;3.70;;;;;;;;;;5054895;28;20025;-65
2023/09/06 04:02:13;;;;;;;3.70;3.17;;;;;;;;;;5055314;28;20028;-64
2023/09/06 04:04:40;;;;;;;4.83;3.80;;;;;;;;;;5054813;28;20031;-64
2023/09/06 04:07:07;;;;;;;3.67;2.87;;;;;;;;;;5051942;28;20033;-65
2023/09/06 04:09:37;;;;;;;4.83;3.27;;;;;;;;;;5050174;28;20153;-65
2023/09/06 04:12:07;;;;;;;5.77;3.80;;;;;;;;;;5050102;28;20028;-65
2023/09/06 04:14:38;;;;;;;16.93;4.37;;;;;;;;;;5049983;28;20021;-65
2023/09/06 04:17:06;;;;;;;5.60;4.07;;;;;;;;;;5052748;28;20029;-65
2023/09/06 04:19:36;;;;;;;3.40;2.87;;;;;;;;;;5054978;28;20029;-65
2023/09/06 04:22:02;;;;;;;5.90;4.07;;;;;;;;;;5036972;28;20029;-65
2023/09/06 04:24:29;;;;;;;5.53;3.87;;;;;;;;;;5054849;28;20079;-65
2023/09/06 04:26:56;;;;;;;6.70;3.80;;;;;;;;;;5053862;28;20033;-65
2023/09/06 04:29:24;;;;;;;6.13;4.63;;;;;;;;;;5051110;28;20517;-64
2023/09/06 04:31:50;;;;;;;5.50;4.13;;;;;;;;;;5031265;28;20123;-65
2023/09/06 04:34:17;;;;;;;6.37;4.70;;;;;;;;;;5031409;28;20448;-64
2023/09/06 04:36:44;;;;;;;5.67;3.77;;;;;;;;;;5049376;28;20054;-65
2023/09/06 04:39:10;;;;;;;4.20;3.00;;;;;;;;;;5052190;28;20029;-65
2023/09/06 04:41:37;;;;;;;6.33;3.77;;;;;;;;;;5054185;28;20079;-65
2023/09/06 04:44:04;;;;;;;7.60;4.17;;;;;;;;;;5054771;28;20085;-64
2023/09/06 04:46:30;;;;;;;5.77;4.27;;;;;;;;;;5054441;28;20091;-64
2023/09/06 04:48:57;;;;;;;6.17;4.60;;;;;;;;;;5054336;28;20028;-65
2023/09/06 04:51:23;;;;;;;5.83;3.93;;;;;;;;;;5050710;28;20044;-65
2023/09/06 04:53:50;;;;;;;5.77;3.97;;;;;;;;;;5049453;28;20017;-64
2023/09/06 04:56:17;;;;;;;4.37;3.13;;;;;;;;;;5049054;28;20021;-65
2023/09/06 04:58:44;;;;;;;5.63;4.40;;;;;;;;;;5049360;28;20388;-65
2023/09/06 05:01:11;;;;;;;6.27;4.70;;;;;;;;;;5051481;28;20178;-65
2023/09/06 05:03:39;;;;;;;6.30;4.80;;;;;;;;;;5054241;28;20017;-65
2023/09/06 05:06:06;;;;;;;16.83;3.63;;;;;;;;;;5053862;28;20025;-64
2023/09/06 05:08:32;;;;;;;6.63;4.90;;;;;;;;;;5054043;28;20357;-65
2023/09/06 05:10:59;;;;;;;6.40;4.60;;;;;;;;;;5053697;28;20025;-65
2023/09/06 05:13:26;;;;;;;9.70;5.07;;;;;;;;;;5050684;28;20533;-64
2023/09/06 05:15:52;;;;;;;8.53;4.43;;;;;;;;;;5048955;28;20036;-64
2023/09/06 05:18:19;;;;;;;6.20;4.30;;;;;;;;;;5048828;28;20033;-64
2023/09/06 05:20:46;;;;;;;10.20;5.27;;;;;;;;;;5048724;28;20526;-65
2023/09/06 05:23:13;;;;;;;6.63;4.90;;;;;;;;;;5050825;28;20029;-64
2023/09/06 05:25:41;;;;;;;9.47;5.13;;;;;;;;;;5053815;28;20376;-65
2023/09/06 05:28:09;;;;;;;5.33;4.57;;;;;;;;;;5053243;28;20035;-64
2023/09/06 05:30:42;;;;;;;7.27;5.00;;;;;;;;;;5053732;28;20028;-65
2023/09/06 05:33:09;;;;;;;18.63;4.70;;;;;;;;;;5053620;28;20036;-64
2023/09/06 05:35:36;;;;;;;9.90;4.00;;;;;;;;;;5050059;28;20035;-65
2023/09/06 05:38:03;;;;;;;5.83;3.87;;;;;;;;;;5048760;28;20494;-64
2023/09/06 05:40:30;;;;;;;7.10;4.57;;;;;;;;;;5047762;28;20037;-65
2023/09/06 05:42:57;;;;;;;5.70;3.93;;;;;;;;;;5048413;28;20033;-64
2023/09/06 05:45:26;;;;;;;6.03;3.83;;;;;;;;;;5050715;28;20024;-65
2023/09/06 05:47:53;;;;;;;4.47;2.97;;;;;;;;;;5052340;28;20029;-65
2023/09/06 05:50:19;;;;;;;7.67;4.93;;;;;;;;;;5053334;28;20031;-65
2023/09/06 05:52:46;;;;;;;6.47;4.37;;;;;;;;;;5053196;28;20025;-64
2023/09/06 05:55:13;;;;;;;5.30;4.23;;;;;;;;;;5053177;28;20078;-65
2023/09/06 05:57:39;;;;;;;4.10;3.03;;;;;;;;;;5049313;28;20037;-64
2023/09/06 06:00:12;;;;;;;26.20;4.43;;;;;;;;;;5048022;28;20087;-65
2023/09/06 06:02:39;;;;;;;5.83;3.37;;;;;;;;;;5047802;28;20021;-64
2023/09/06 06:05:06;;;;;;;4.03;3.00;;;;;;;;;;5047991;28;20095;-64
2023/09/06 06:07:33;;;;;;;8.93;4.27;;;;;;;;;;5050052;28;20123;-65
2023/09/06 06:10:00;;;;;;;7.10;4.90;;;;;;;;;;5052279;28;20033;-65
2023/09/06 06:12:27;;;;;;;7.03;4.80;;;;;;;;;;5052771;28;20025;-65
2023/09/06 06:14:53;;;;;;;5.87;4.43;;;;;;;;;;5052922;28;20083;-67
2023/09/06 06:17:20;;;;;;;5.50;3.97;;;;;;;;;;5052953;28;20157;-67
2023/09/06 06:19:49;;;;;;;4.00;2.97;;;;;;;;;;5049643;28;20025;-67
2023/09/06 06:22:15;;;;;;;6.90;3.10;;;;;;;;;;5047539;28;20115;-67
2023/09/06 06:24:46;;;;;;;24.83;4.63;;;;;;;;;;5047481;28;20025;-68
2023/09/06 06:27:13;;;;;;;7.47;4.30;;;;;;;;;;5047512;28;20033;-67
2023/09/06 06:29:40;;;;;;;5.10;3.77;;;;;;;;;;5050057;28;20017;-67
2023/09/06 06:32:07;;;;;;;5.00;3.60;;;;;;;;;;5052109;28;20025;-68
2023/09/06 06:34:36;;;;;;;4.67;3.37;;;;;;;;;;5052677;28;20120;-68
2023/09/06 06:37:02;;;;;;;6.03;4.03;;;;;;;;;;5052512;28;20536;-67
2023/09/06 06:39:29;;;;;;;4.30;2.97;;;;;;;;;;5051999;28;20091;-68
2023/09/06 06:41:56;;;;;;;5.93;3.97;;;;;;;;;;5049512;28;20052;-67
2023/09/06 06:44:22;;;;;;;3.63;2.70;;;;;;;;;;5047122;28;20021;-67
2023/09/06 06:46:49;;;;;;;3.40;2.57;;;;;;;;;;5047034;28;20032;-67
2023/09/06 06:49:16;;;;;;;4.90;2.93;;;;;;;;;;5047390;28;20032;-67
2023/09/06 06:51:42;;;;;;;24.97;4.53;;;;;;;;;;5049789;28;20029;-67
2023/09/06 06:54:09;;;;;;;4.40;3.43;;;;;;;;;;5051854;28;20052;-67
2023/09/06 06:56:36;;;;;;;4.17;3.03;;;;;;;;;;5052045;28;20500;-67
2023/09/06 06:59:04;;;;;;;4.57;3.33;;;;;;;;;;5052061;28;20482;-66
2023/09/06 07:01:31;;;;;;;8.27;3.30;;;;;;;;;;5052315;28;20025;-66
2023/09/06 07:04:04;;;;;;;5.63;3.63;;;;;;;;;;5049308;28;20025;-67
2023/09/06 07:06:30;;;;;;;5.53;3.50;;;;;;;;;;5046703;28;20041;-66
2023/09/06 07:08:58;;;;;;;3.33;2.17;;;;;;;;;;5046991;28;20425;-66
2023/09/06 07:11:25;;;;;;;3.57;2.80;;;;;;;;;;5047179;28;20090;-66
2023/09/06 07:13:52;;;;;;;4.53;3.13;;;;;;;;;;5049650;28;20039;-66
2023/09/06 07:16:20;;;;;;;3.80;2.87;;;;;;;;;;5034149;28;20096;-66
2023/09/06 07:18:47;;;;;;;5.13;2.73;;;;;;;;;;5051729;28;20053;-66
2023/09/06 07:21:15;;;;;;;6.70;3.07;;;;;;;;;;5051795;28;20375;-66
2023/09/06 07:23:42;;;;;;;6.47;4.03;;;;;;;;;;5052007;28;20020;-66
2023/09/06 07:26:09;;;;;;;3.07;2.47;;;;;;;;;;5048690;28;20021;-66
2023/09/06 07:28:46;;;;;;;4.33;3.23;;;;;;;;;;5046661;28;20028;-66
2023/09/06 07:31:14;;;;;;;3.50;2.30;;;;;;;;;;5046909;28;20032;-65
2023/09/06 07:33:41;;;;;;;7.77;3.07;;;;;;;;;;5047013;28;20033;-65
2023/09/06 07:36:08;;;;;;;2.50;1.80;;;;;;;;;;5049306;28;20094;-66
2023/09/06 07:38:34;;;;;;;4.33;3.03;;;;;;;;;;5033681;28;20364;-66
2023/09/06 07:41:02;;;;;;;4.80;3.67;;;;;;;;;;5051600;28;20494;-66
2023/09/06 07:43:30;;;;;;;7.70;3.60;;;;;;;;;;5052039;28;20017;-65
2023/09/06 07:45:57;;;;;;;3.47;2.70;;;;;;;;;;5051711;28;20025;-65
2023/09/06 07:48:25;;;;;;;3.77;2.43;;;;;;;;;;5048590;28;20047;-65
2023/09/06 07:50:52;;;;;;;3.93;2.87;;;;;;;;;;5046700;28;20410;-65
2023/09/06 07:53:19;;;;;;;5.10;4.00;;;;;;;;;;5046211;28;20032;-65
2023/09/06 07:55:46;;;;;;;4.03;3.10;;;;;;;;;;5046511;28;20407;-65
2023/09/06 07:58:13;;;;;;;9.13;3.60;;;;;;;;;;5049274;28;20025;-65
2023/09/06 08:00:40;;;;;;;4.13;3.47;;;;;;;;;;5051328;28;20029;-66
2023/09/06 08:03:07;;;;;;;4.87;2.77;;;;;;;;;;5051635;28;20102;-65
2023/09/06 08:05:37;;;;;;;7.47;2.70;;;;;;;;;;5051548;28;20421;-65
2023/09/06 08:08:06;;;;;;;4.67;3.57;;;;;;;;;;5051493;28;20029;-65
2023/09/06 08:10:34;;;;;;;6.67;4.13;;;;;;;;;;5049708;28;20048;-65
2023/09/06 08:13:00;;;;;;;5.80;3.37;;;;;;;;;;5049995;28;20021;-65
2023/09/06 08:15:27;;;;;;;6.30;3.73;;;;;;;;;;5049994;28;20078;-65
2023/09/06 08:17:54;;;;;;;4.10;2.63;;;;;;;;;;5050041;28;20070;-65
2023/09/06 08:20:20;;;;;;;5.47;3.50;;;;;;;;;;5034400;28;20045;-65
2023/09/06 08:22:47;;;;;;;4.03;3.10;;;;;;;;;;5054718;28;20032;-65
2023/09/06 08:25:18;;;;;;;6.87;3.67;;;;;;;;;;5054840;28;20028;-65
2023/09/06 08:27:45;;;;;;;5.40;3.67;;;;;;;;;;5036740;28;20025;-64
2023/09/06 08:30:13;;;;;;;4.70;3.27;;;;;;;;;;5054835;28;20027;-65
2023/09/06 08:32:40;;;;;;;2.50;2.00;;;;;;;;;;5051316;28;20519;-64
2023/09/06 08:35:07;;;;;;;4.30;2.73;;;;;;;;;;5049695;28;20021;-65
2023/09/06 08:37:34;;;;;;;3.13;2.40;;;;;;;;;;5049440;28;20479;-65
2023/09/06 08:40:05;;;;;;;4.40;2.83;;;;;;;;;;5049605;28;20308;-65
2023/09/06 08:42:33;;;;;;;3.63;2.73;;;;;;;;;;5052182;28;20017;-65
2023/09/06 08:45:03;;;;;;;3.93;2.93;;;;;;;;;;5054365;28;20021;-65
2023/09/06 08:47:30;;;;;;;4.03;2.77;;;;;;;;;;5054211;28;20052;-64
2023/09/06 08:49:58;;;;;;;4.47;3.10;;;;;;;;;;5054063;28;20056;-64
2023/09/06 08:52:24;;;;;;;3.13;2.60;;;;;;;;;;5054637;28;20053;-64
2023/09/06 08:54:51;;;;;;;4.40;2.70;;;;;;;;;;5050978;28;20104;-65
2023/09/06 08:57:19;;;;;;;3.33;2.50;;;;;;;;;;5048889;28;20059;-65
2023/09/06 08:59:49;;;;;;;3.23;2.20;;;;;;;;;;5049086;28;20029;-64
2023/09/06 09:02:16;;;;;;;2.23;1.70;;;;;;;;;;5049381;28;20079;-64
2023/09/06 09:04:43;;;;;;;3.53;2.33;;;;;;;;;;5051246;28;20029;-65
2023/09/06 09:07:11;;;;;;;4.53;2.93;;;;;;;;;;5053780;28;20065;-64
2023/09/06 09:09:56;;;;;;;4.17;2.77;;;;;;;;;;5054149;28;20017;-64
2023/09/06 09:12:26;;;;;;;4.68;2.53;;;;;;;;;;5054009;28;20017;-64
2023/09/06 09:14:56;;;;;;;2.17;1.80;;;;;;;;;;5053164;28;20025;-64
2023/09/06 09:17:24;;;;;;;4.17;2.80;;;;;;;;;;5049827;28;20434;-65
2023/09/06 09:19:54;;;;;;;4.67;3.00;;;;;;;;;;5048560;28;20049;-65
2023/09/06 09:22:24;;;;;;;2.47;2.00;;;;;;;;;;5048552;28;20013;-65
2023/09/06 09:24:51;;;;;;;4.67;2.43;;;;;;;;;;5048759;28;20056;-64
2023/09/06 09:27:18;;;;;;;3.83;2.93;;;;;;;;;;5051776;28;20037;-64
2023/09/06 09:29:47;;;;;;;3.10;2.23;;;;;;;;;;5053715;28;20029;-65
2023/09/06 09:32:14;;;;;;;3.00;2.27;;;;;;;;;;5053782;28;20063;-64
2023/09/06 09:34:41;;;;;;;2.40;1.97;;;;;;;;;;5053246;28;20510;-64
2023/09/06 09:37:11;;;;;;;3.23;2.50;;;;;;;;;;5053568;28;20124;-64
2023/09/06 09:39:38;;;;;;;3.27;2.30;;;;;;;;;;5049089;28;20029;-64
2023/09/06 09:42:05;;;;;;;3.33;2.40;;;;;;;;;;5048104;28;20495;-64
2023/09/06 09:44:33;;;;;;;19.97;2.97;;;;;;;;;;5048182;28;20021;-65
2023/09/06 09:47:08;;;;;;;5.67;3.70;;;;;;;;;;5047908;28;20039;-64
2023/09/06 09:49:36;;;;;;;7.20;3.67;;;;;;;;;;5032339;28;20029;-64
2023/09/06 09:52:02;;;;;;;5.67;2.90;;;;;;;;;;5033347;28;20026;-64
2023/09/06 09:54:32;;;;;;;4.40;2.60;;;;;;;;;;5032953;28;20037;-65
2023/09/06 09:57:07;;;;;;;4.50;3.10;;;;;;;;;;5039582;28;20055;-64
2023/09/06 09:59:36;;;;;;;;;;;;;;;;;;5053592;28;20361;-64
2023/09/06 10:02:04;;;;;;;5.80;2.83;;;;;;;;;;5048268;28;19927;-64
2023/09/06 10:04:35;;;;;;;3.20;2.53;;;;;;;;;;5048061;28;20129;-64
2023/09/06 10:07:04;;;;;;;4.10;2.40;;;;;;;;;;5047557;28;20021;-64
2023/09/06 10:09:32;;;;;;;7.37;3.37;;;;;;;;;;5047780;28;20185;-64
2023/09/06 10:12:00;;;;;;;4.23;2.60;;;;;;;;;;5052572;28;20074;-64
2023/09/06 10:14:28;;;;;;;3.03;2.37;;;;;;;;;;5052783;28;20490;-64
2023/09/06 10:16:55;;;;;;;5.50;2.97;;;;;;;;;;5052975;28;20102;-64
2023/09/06 10:19:22;;;;;;;2.40;1.70;;;;;;;;;;5052893;28;20035;-64
2023/09/06 10:21:49;;;;;;;3.17;2.03;;;;;;;;;;5052152;28;20155;-64
2023/09/06 10:24:19;;;;;;;3.73;1.50;;;;;;;;;;5047559;28;20052;-64
2023/09/06 10:26:48;;;;;;;2.63;2.00;;;;;;;;;;5047476;28;20036;-64
2023/09/06 10:29:19;;;;;;;6.73;2.70;;;;;;;;;;5047348;28;20021;-65
2023/09/06 10:31:51;;;;;;;2.17;1.50;;;;;;;;;;5047147;28;20025;-65
2023/09/06 10:34:18;;;;;;;3.30;1.97;;;;;;;;;;5052106;28;20024;-65
2023/09/06 10:36:54;;;;;;;2.13;1.60;;;;;;;;;;5052626;28;20110;-64
2023/09/06 10:39:22;;;;;;;3.63;2.43;;;;;;;;;;5052380;28;20384;-64
2023/09/06 10:42:11;;;;;;;3.70;2.10;;;;;;;;;;5052832;28;20557;-64
2023/09/06 10:44:58;;;;;;;4.10;2.50;;;;;;;;;;5042517;28;20037;-64
2023/09/06 10:47:25;;;;;;;6.43;2.40;;;;;;;;;;5029206;28;20373;-64
2023/09/06 10:50:18;;;;;;;20.07;2.37;;;;;;;;;;5047368;28;20033;-64
2023/09/06 10:52:49;;;;;;;3.47;2.37;;;;;;;;;;5044687;28;20509;-64
2023/09/06 10:55:26;;;;;;;2.27;1.77;;;;;;;;;;5049763;28;20541;-65
2023/09/06 10:58:03;;;;;;;8.70;2.10;;;;;;;;;;5051451;28;20041;-65
2023/09/06 11:00:31;;;;;;;6.03;2.20;;;;;;;;;;5052450;28;20021;-64
2023/09/06 11:03:10;;;;;;;4.57;1.87;;;;;;;;;;5052193;28;20518;-64
2023/09/06 11:05:37;;;;;;;10.50;2.63;;;;;;;;;;5052277;28;20175;-64
2023/09/06 11:08:04;;;;;;;11.53;2.43;;;;;;;;;;5047193;28;20033;-65
2023/09/06 11:10:31;;;;;;;3.27;2.40;;;;;;;;;;5047200;28;20029;-63
2023/09/06 11:12:59;;;;;;;3.83;1.93;;;;;;;;;;5047181;28;20033;-64
2023/09/06 11:15:25;;;;;;;14.87;2.27;;;;;;;;;;5046963;28;20036;-64
2023/09/06 11:17:58;;;;;;;3.97;1.87;;;;;;;;;;5050804;28;20043;-64
2023/09/06 11:20:25;;;;;;;2.23;1.73;;;;;;;;;;5051569;28;20029;-64
2023/09/06 11:22:56;;;;;;;5.97;1.90;;;;;;;;;;5051624;28;20029;-64
2023/09/06 11:25:25;;;;;;;2.83;1.97;;;;;;;;;;5052043;28;20414;-64
2023/09/06 11:27:55;;;;;;;4.27;2.53;;;;;;;;;;5051861;28;20021;-64
2023/09/06 11:30:23;;;;;;;1.97;1.50;;;;;;;;;;5047110;28;20013;-64
2023/09/06 11:32:56;;;;;;;2.53;1.87;;;;;;;;;;5028695;28;20029;-64
2023/09/06 11:35:27;;;;;;;2.53;1.77;;;;;;;;;;5046665;28;20051;-63
2023/09/06 11:37:55;;;;;;;15.80;2.20;;;;;;;;;;5046738;28;20029;-64
2023/09/06 11:40:27;;;;;;;2.13;1.60;;;;;;;;;;5051410;28;20021;-64
2023/09/06 11:42:58;;;;;;;5.67;2.27;;;;;;;;;;5052026;28;20021;-64
2023/09/06 11:45:26;;;;;;;6.80;1.77;;;;;;;;;;5052844;28;20025;-64
2023/09/06 11:48:04;;;;;;;3.80;2.13;;;;;;;;;;5055609;28;20025;-64
2023/09/06 11:50:34;;;;;;;3.57;2.17;;;;;;;;;;5054942;28;20044;-64
2023/09/06 11:53:04;;;;;;;5.33;2.50;;;;;;;;;;5050486;28;20044;-64
2023/09/06 11:55:34;;;;;;;3.53;2.40;;;;;;;;;;5050591;28;20414;-64
2023/09/06 11:58:01;;;;;;;3.23;2.37;;;;;;;;;;5049715;28;20033;-64
2023/09/06 12:00:42;;;;;;;3.23;2.37;;;;;;;;;;5050799;28;20451;-64
2023/09/06 12:03:13;;;;;;;2.60;2.17;;;;;;;;;;5055367;28;20052;-63
2023/09/06 12:05:53;;;;;;;2.93;2.07;;;;;;;;;;5055308;28;20037;-63
2023/09/06 12:08:21;;;;;;;3.90;2.60;;;;;;;;;;5055067;28;20523;-64
2023/09/06 12:10:53;;;;;;;4.10;2.27;;;;;;;;;;5055153;28;20082;-63
2023/09/06 12:13:34;;;;;;;2.30;1.77;;;;;;;;;;5053019;28;20078;-63
2023/09/06 12:16:02;;;;;;;3.13;2.57;;;;;;;;;;5049860;28;20104;-64
2023/09/06 12:18:29;;;;;;;5.77;2.93;;;;;;;;;;5049760;28;20029;-64
2023/09/06 12:20:59;;;;;;;4.23;3.07;;;;;;;;;;5050077;28;20113;-64
2023/09/06 12:23:30;;;;;;;2.37;1.90;;;;;;;;;;5034254;28;20037;-64
2023/09/06 12:25:57;;;;;;;4.17;3.10;;;;;;;;;;5054900;28;20044;-63
2023/09/06 12:28:24;;;;;;;3.17;2.27;;;;;;;;;;5054934;28;20036;-63
2023/09/06 12:30:55;;;;;;;3.10;2.23;;;;;;;;;;5054178;28;20039;-64
2023/09/06 12:33:23;;;;;;;3.47;2.33;;;;;;;;;;5054914;28;20025;-64
2023/09/06 12:35:58;;;;;;;2.53;2.03;;;;;;;;;;5051809;28;20384;-64
2023/09/06 12:38:25;;;;;;;;;;;;;;;;;;5050254;28;20025;-64
2023/09/06 12:40:51;;;;;;;3.87;2.80;;;;;;;;;;5049197;28;19904;-64
2023/09/06 12:43:19;;;;;;;2.83;2.10;;;;;;;;;;5049088;28;20083;-63
2023/09/06 12:45:47;;;;;;;4.17;2.47;;;;;;;;;;5052106;28;20033;-64
2023/09/06 12:48:14;;;;;;;3.53;2.53;;;;;;;;;;5054531;28;20071;-64
2023/09/06 12:50:41;;;;;;;2.60;2.03;;;;;;;;;;5054568;28;20376;-63
2023/09/06 12:53:08;;;;;;;4.17;2.30;;;;;;;;;;5054042;28;20086;-63
2023/09/06 12:55:35;;;;;;;5.13;2.67;;;;;;;;;;5053718;28;20025;-64
2023/09/06 12:58:04;;;;;;;4.13;2.03;;;;;;;;;;5032864;28;20380;-64
2023/09/06 13:00:30;;;;;;;5.00;3.20;;;;;;;;;;5049202;28;20037;-63
2023/09/06 13:02:57;;;;;;;3.57;2.67;;;;;;;;;;5049312;28;20036;-64
2023/09/06 13:05:26;;;;;;;6.97;3.07;;;;;;;;;;5048738;28;20147;-63
2023/09/06 13:07:52;;;;;;;4.77;2.90;;;;;;;;;;5051711;28;20361;-64
2023/09/06 13:10:19;;;;;;;5.13;1.87;;;;;;;;;;5054206;28;20108;-64
2023/09/06 13:12:46;;;;;;;3.23;2.47;;;;;;;;;;5053851;28;20025;-64
2023/09/06 13:15:13;;;;;;;3.23;2.47;;;;;;;;;;5053999;28;20021;-64
2023/09/06 13:17:40;;;;;;;3.23;2.07;;;;;;;;;;5053390;28;20024;-64
2023/09/06 13:20:10;;;;;;;2.97;2.13;;;;;;;;;;5050873;28;20029;-64
2023/09/06 13:22:41;;;;;;;8.23;2.87;;;;;;;;;;5048975;28;20021;-64
2023/09/06 13:25:08;;;;;;;4.97;3.13;;;;;;;;;;5048162;28;20036;-64
2023/09/06 13:27:35;;;;;;;5.70;3.47;;;;;;;;;;5048720;28;20498;-64
2023/09/06 13:30:04;;;;;;;3.37;1.90;;;;;;;;;;5050734;28;20029;-64
2023/09/06 13:32:31;;;;;;;3.17;2.30;;;;;;;;;;5053573;28;20021;-64
2023/09/06 13:34:58;;;;;;;3.13;2.20;;;;;;;;;;5053441;28;20028;-64
2023/09/06 13:37:26;;;;;;;5.73;2.93;;;;;;;;;;5053650;28;20025;-64
2023/09/06 13:39:53;;;;;;;4.20;2.80;;;;;;;;;;5052751;28;20032;-64
2023/09/06 13:42:23;;;;;;;7.43;3.37;;;;;;;;;;5050335;28;20033;-65
2023/09/06 13:44:49;;;;;;;5.23;3.63;;;;;;;;;;5048397;28;20021;-64
2023/09/06 13:47:17;;;;;;;8.33;4.60;;;;;;;;;;5048223;28;20035;-64
2023/09/06 13:49:44;;;;;;;3.47;2.87;;;;;;;;;;5048448;28;20030;-64
2023/09/06 13:52:11;;;;;;;6.13;4.00;;;;;;;;;;5050465;28;20059;-65
2023/09/06 13:54:37;;;;;;;3.47;2.57;;;;;;;;;;5053137;28;20027;-64
2023/09/06 13:57:05;;;;;;;5.20;3.83;;;;;;;;;;5053375;28;20036;-65
2023/09/06 13:59:31;;;;;;;5.03;2.83;;;;;;;;;;5053142;28;20021;-64
2023/09/06 14:01:58;;;;;;;3.93;3.27;;;;;;;;;;5053161;28;20029;-65
2023/09/06 14:04:25;;;;;;;4.33;2.77;;;;;;;;;;5049412;28;20154;-65
2023/09/06 14:06:53;;;;;;;3.20;2.83;;;;;;;;;;5047863;28;20044;-64
2023/09/06 14:09:19;;;;;;;2.47;1.93;;;;;;;;;;5047264;28;20177;-65
2023/09/06 14:11:46;;;;;;;4.23;3.23;;;;;;;;;;5047980;28;20040;-65
2023/09/06 14:14:13;;;;;;;4.47;2.90;;;;;;;;;;5050535;28;20079;-65
2023/09/06 14:16:39;;;;;;;6.90;3.50;;;;;;;;;;5052500;28;20110;-65
2023/09/06 14:19:06;;;;;;;4.93;3.57;;;;;;;;;;5052745;28;20027;-64
2023/09/06 14:21:33;;;;;;;4.73;2.93;;;;;;;;;;5052974;28;20487;-65
2023/09/06 14:24:00;;;;;;;4.60;3.47;;;;;;;;;;5052205;28;20092;-65
2023/09/06 14:26:26;;;;;;;4.53;3.67;;;;;;;;;;5049234;28;20123;-64
2023/09/06 14:28:53;;;;;;;5.63;4.33;;;;;;;;;;5047533;28;20025;-65
2023/09/06 14:31:20;;;;;;;6.87;4.53;;;;;;;;;;5047454;28;20025;-65
2023/09/06 14:33:46;;;;;;;6.57;5.17;;;;;;;;;;5047621;28;20128;-65
2023/09/06 14:36:13;;;;;;;7.10;4.27;;;;;;;;;;5050206;28;20021;-65
2023/09/06 14:38:40;;;;;;;6.10;4.10;;;;;;;;;;5051751;28;20503;-65
2023/09/06 14:41:07;;;;;;;3.83;3.20;;;;;;;;;;5052698;28;20387;-65
2023/09/06 14:43:34;;;;;;;6.65;4.53;;;;;;;;;;5052281;28;20361;-65
2023/09/06 14:46:04;;;;;;;3.90;3.03;;;;;;;;;;5052469;28;20361;-66
2023/09/06 14:48:31;;;;;;;9.00;4.05;;;;;;;;;;5049293;28;20071;-65
2023/09/06 14:51:01;;;;;;;4.80;3.78;;;;;;;;;;5047253;28;20029;-65